sensor_id;sensor_type;location;lat;lon;timestamp;pressure;altitude;pressure_sealevel;temperature;humidity
62055;BME280;48653;51.742;-1.256;2024-01-27T00:03:48;102780.51;;;2.61;46.33
62055;BME280;48653;51.742;-1.256;2024-01-27T00:06:12;102778.62;;;4.63;45.46
62055;BME280;48653;51.742;-1.256;2024-01-27T00:08:38;102777.03;;;4.54;46.14
62055;BME280;48653;51.742;-1.256;2024-01-27T00:11:02;102779.96;;;3.98;46.99
62055;BME280;48653;51.742;-1.256;2024-01-27T00:13:28;102781.60;;;4.51;46.85
62055;BME280;48653;51.742;-1.256;2024-01-27T00:15:53;102784.22;;;4.18;47.31
62055;BME280;48653;51.742;-1.256;2024-01-27T00:18:18;102783.74;;;3.73;47.74
62055;BME280;48653;51.742;-1.256;2024-01-27T00:20:43;102779.67;;;3.91;47.91
62055;BME280;48653;51.742;-1.256;2024-01-27T00:23:08;102775.59;;;4.07;47.42
62055;BME280;48653;51.742;-1.256;2024-01-27T00:25:33;102772.17;;;4.05;47.98
62055;BME280;48653;51.742;-1.256;2024-01-27T00:27:59;102769.30;;;4.11;47.69
62055;BME280;48653;51.742;-1.256;2024-01-27T00:30:24;102772.46;;;4.01;47.34
62055;BME280;48653;51.742;-1.256;2024-01-27T00:32:49;102776.73;;;3.46;47.97
62055;BME280;48653;51.742;-1.256;2024-01-27T00:35:14;102773.11;;;3.89;48.18
62055;BME280;48653;51.742;-1.256;2024-01-27T00:37:39;102768.16;;;4.10;47.58
62055;BME280;48653;51.742;-1.256;2024-01-27T00:40:07;102760.28;;;3.84;47.53
62055;BME280;48653;51.742;-1.256;2024-01-27T00:42:30;102757.58;;;3.93;47.93
62055;BME280;48653;51.742;-1.256;2024-01-27T00:44:55;102755.07;;;4.15;47.21
62055;BME280;48653;51.742;-1.256;2024-01-27T00:47:20;102753.55;;;4.20;47.53
62055;BME280;48653;51.742;-1.256;2024-01-27T00:49:46;102755.83;;;4.10;47.21
62055;BME280;48653;51.742;-1.256;2024-01-27T00:52:11;102758.99;;;4.11;46.70
62055;BME280;48653;51.742;-1.256;2024-01-27T00:54:36;102752.15;;;3.51;47.05
62055;BME280;48653;51.742;-1.256;2024-01-27T00:57:01;102752.49;;;4.08;46.88
62055;BME280;48653;51.742;-1.256;2024-01-27T00:59:27;102745.77;;;3.97;47.14
62055;BME280;48653;51.742;-1.256;2024-01-27T01:01:52;102742.80;;;4.12;46.57
62055;BME280;48653;51.742;-1.256;2024-01-27T01:04:18;102745.75;;;3.97;46.99
62055;BME280;48653;51.742;-1.256;2024-01-27T01:06:42;102743.65;;;3.52;47.77
62055;BME280;48653;51.742;-1.256;2024-01-27T01:09:07;102739.03;;;3.87;47.27
62055;BME280;48653;51.742;-1.256;2024-01-27T01:11:32;102739.14;;;3.59;47.52
62055;BME280;48653;51.742;-1.256;2024-01-27T01:13:58;102731.51;;;3.50;47.91
62055;BME280;48653;51.742;-1.256;2024-01-27T01:16:23;102727.38;;;3.47;47.81
62055;BME280;48653;51.742;-1.256;2024-01-27T01:18:48;102720.77;;;3.72;47.34
62055;BME280;48653;51.742;-1.256;2024-01-27T01:21:14;102715.39;;;3.33;48.30
62055;BME280;48653;51.742;-1.256;2024-01-27T01:23:39;102721.08;;;3.52;47.48
62055;BME280;48653;51.742;-1.256;2024-01-27T01:26:05;102729.10;;;3.27;48.42
62055;BME280;48653;51.742;-1.256;2024-01-27T01:28:30;102728.69;;;3.65;48.02
62055;BME280;48653;51.742;-1.256;2024-01-27T01:30:55;102726.74;;;3.35;48.03
62055;BME280;48653;51.742;-1.256;2024-01-27T01:33:21;102724.40;;;3.67;47.69
62055;BME280;48653;51.742;-1.256;2024-01-27T01:35:47;102728.58;;;3.41;47.95
62055;BME280;48653;51.742;-1.256;2024-01-27T01:38:13;102730.34;;;3.50;47.51
62055;BME280;48653;51.742;-1.256;2024-01-27T01:40:37;102735.63;;;3.23;47.93
62055;BME280;48653;51.742;-1.256;2024-01-27T01:43:03;102738.61;;;3.60;46.87
62055;BME280;48653;51.742;-1.256;2024-01-27T01:45:28;102739.07;;;3.41;47.50
62055;BME280;48653;51.742;-1.256;2024-01-27T01:47:54;102737.04;;;3.73;48.22
62055;BME280;48653;51.742;-1.256;2024-01-27T01:50:20;102731.47;;;3.04;47.98
62055;BME280;48653;51.742;-1.256;2024-01-27T01:52:44;102730.01;;;3.05;49.39
62055;BME280;48653;51.742;-1.256;2024-01-27T01:55:10;102733.94;;;3.91;48.26
62055;BME280;48653;51.742;-1.256;2024-01-27T01:57:36;102735.18;;;3.46;48.01
62055;BME280;48653;51.742;-1.256;2024-01-27T02:00:00;102731.54;;;2.99;48.74
62055;BME280;48653;51.742;-1.256;2024-01-27T02:02:25;102727.95;;;3.30;47.82
62055;BME280;48653;51.742;-1.256;2024-01-27T02:04:52;102728.58;;;3.58;47.71
62055;BME280;48653;51.742;-1.256;2024-01-27T02:07:16;102730.79;;;3.26;47.76
62055;BME280;48653;51.742;-1.256;2024-01-27T02:09:41;102730.61;;;3.36;48.09
62055;BME280;48653;51.742;-1.256;2024-01-27T02:12:07;102728.37;;;3.31;47.90
62055;BME280;48653;51.742;-1.256;2024-01-27T02:14:32;102728.81;;;3.73;47.45
62055;BME280;48653;51.742;-1.256;2024-01-27T02:16:57;102737.81;;;3.07;48.46
62055;BME280;48653;51.742;-1.256;2024-01-27T02:19:22;102734.78;;;3.21;48.78
62055;BME280;48653;51.742;-1.256;2024-01-27T02:21:47;102733.99;;;3.12;48.54
62055;BME280;48653;51.742;-1.256;2024-01-27T02:24:13;102739.14;;;3.00;48.27
62055;BME280;48653;51.742;-1.256;2024-01-27T02:26:38;102741.68;;;2.94;48.03
62055;BME280;48653;51.742;-1.256;2024-01-27T02:29:03;102733.48;;;3.25;48.07
62055;BME280;48653;51.742;-1.256;2024-01-27T02:31:29;102730.72;;;3.29;49.29
62055;BME280;48653;51.742;-1.256;2024-01-27T02:33:54;102731.87;;;3.08;48.80
62055;BME280;48653;51.742;-1.256;2024-01-27T02:36:19;102729.07;;;2.92;49.27
62055;BME280;48653;51.742;-1.256;2024-01-27T02:38:45;102729.42;;;2.76;49.76
62055;BME280;48653;51.742;-1.256;2024-01-27T02:41:11;102727.02;;;2.83;49.37
62055;BME280;48653;51.742;-1.256;2024-01-27T02:43:36;102730.39;;;3.11;48.44
62055;BME280;48653;51.742;-1.256;2024-01-27T02:46:01;102730.81;;;3.43;47.92
62055;BME280;48653;51.742;-1.256;2024-01-27T02:48:26;102736.06;;;3.20;49.69
62055;BME280;48653;51.742;-1.256;2024-01-27T02:50:52;102739.28;;;3.21;50.18
62055;BME280;48653;51.742;-1.256;2024-01-27T02:53:17;102725.56;;;2.94;49.67
62055;BME280;48653;51.742;-1.256;2024-01-27T02:55:44;102717.53;;;2.73;50.08
62055;BME280;48653;51.742;-1.256;2024-01-27T02:58:08;102725.95;;;3.29;48.73
62055;BME280;48653;51.742;-1.256;2024-01-27T03:00:34;102730.72;;;3.35;48.40
62055;BME280;48653;51.742;-1.256;2024-01-27T03:02:59;102721.81;;;3.04;48.17
62055;BME280;48653;51.742;-1.256;2024-01-27T03:05:25;102726.61;;;2.91;49.04
62055;BME280;48653;51.742;-1.256;2024-01-27T03:07:50;102731.46;;;2.77;48.81
62055;BME280;48653;51.742;-1.256;2024-01-27T03:10:16;102726.01;;;3.10;48.06
62055;BME280;48653;51.742;-1.256;2024-01-27T03:12:42;102722.07;;;3.08;48.24
62055;BME280;48653;51.742;-1.256;2024-01-27T03:15:09;102735.09;;;2.92;48.77
62055;BME280;48653;51.742;-1.256;2024-01-27T03:17:33;102734.12;;;2.90;48.70
62055;BME280;48653;51.742;-1.256;2024-01-27T03:19:59;102732.53;;;2.53;49.57
62055;BME280;48653;51.742;-1.256;2024-01-27T03:22:24;102734.20;;;3.15;48.53
62055;BME280;48653;51.742;-1.256;2024-01-27T03:24:49;102734.09;;;2.52;49.33
62055;BME280;48653;51.742;-1.256;2024-01-27T03:27:15;102724.92;;;3.10;48.74
62055;BME280;48653;51.742;-1.256;2024-01-27T03:29:40;102716.63;;;2.66;49.62
62055;BME280;48653;51.742;-1.256;2024-01-27T03:32:05;102713.16;;;3.03;49.02
62055;BME280;48653;51.742;-1.256;2024-01-27T03:34:31;102717.48;;;2.87;49.94
62055;BME280;48653;51.742;-1.256;2024-01-27T03:36:57;102711.35;;;3.14;49.24
62055;BME280;48653;51.742;-1.256;2024-01-27T03:39:22;102703.83;;;2.50;49.36
62055;BME280;48653;51.742;-1.256;2024-01-27T03:41:48;102708.96;;;2.60;50.07
62055;BME280;48653;51.742;-1.256;2024-01-27T03:44:13;102712.08;;;2.88;49.24
62055;BME280;48653;51.742;-1.256;2024-01-27T03:46:39;102714.97;;;2.71;49.88
62055;BME280;48653;51.742;-1.256;2024-01-27T03:49:04;102710.69;;;3.25;48.56
62055;BME280;48653;51.742;-1.256;2024-01-27T03:51:30;102707.55;;;3.15;49.29
62055;BME280;48653;51.742;-1.256;2024-01-27T03:53:55;102711.53;;;2.88;48.65
62055;BME280;48653;51.742;-1.256;2024-01-27T03:56:21;102714.29;;;2.79;50.73
62055;BME280;48653;51.742;-1.256;2024-01-27T03:58:46;102711.91;;;3.02;50.32
62055;BME280;48653;51.742;-1.256;2024-01-27T04:01:11;102711.80;;;2.86;49.85
62055;BME280;48653;51.742;-1.256;2024-01-27T04:03:36;102709.70;;;2.83;49.78
62055;BME280;48653;51.742;-1.256;2024-01-27T04:06:01;102712.67;;;3.18;48.94
62055;BME280;48653;51.742;-1.256;2024-01-27T04:08:27;102713.58;;;2.92;48.99
62055;BME280;48653;51.742;-1.256;2024-01-27T04:10:53;102713.99;;;2.81;48.51
62055;BME280;48653;51.742;-1.256;2024-01-27T04:13:17;102707.69;;;3.00;48.71
62055;BME280;48653;51.742;-1.256;2024-01-27T04:15:43;102702.31;;;3.08;49.31
62055;BME280;48653;51.742;-1.256;2024-01-27T04:18:09;102699.82;;;2.94;49.33
62055;BME280;48653;51.742;-1.256;2024-01-27T04:20:35;102709.26;;;2.53;49.97
62055;BME280;48653;51.742;-1.256;2024-01-27T04:22:59;102707.25;;;2.74;49.41
62055;BME280;48653;51.742;-1.256;2024-01-27T04:25:25;102700.18;;;2.70;49.05
62055;BME280;48653;51.742;-1.256;2024-01-27T04:27:50;102702.97;;;2.86;49.06
62055;BME280;48653;51.742;-1.256;2024-01-27T04:30:15;102702.67;;;2.84;49.03
62055;BME280;48653;51.742;-1.256;2024-01-27T04:32:40;102702.50;;;2.78;48.62
62055;BME280;48653;51.742;-1.256;2024-01-27T04:35:10;102703.91;;;2.69;48.90
62055;BME280;48653;51.742;-1.256;2024-01-27T04:37:32;102701.79;;;2.73;48.98
62055;BME280;48653;51.742;-1.256;2024-01-27T04:39:57;102701.34;;;2.65;49.77
62055;BME280;48653;51.742;-1.256;2024-01-27T04:42:23;102702.60;;;2.52;49.97
62055;BME280;48653;51.742;-1.256;2024-01-27T04:44:47;102700.49;;;2.29;50.31
62055;BME280;48653;51.742;-1.256;2024-01-27T04:47:13;102688.92;;;2.80;50.01
62055;BME280;48653;51.742;-1.256;2024-01-27T04:49:38;102685.91;;;2.44;49.51
62055;BME280;48653;51.742;-1.256;2024-01-27T04:52:05;102686.85;;;2.31;49.82
62055;BME280;48653;51.742;-1.256;2024-01-27T04:54:30;102685.88;;;2.85;49.87
62055;BME280;48653;51.742;-1.256;2024-01-27T04:56:55;102693.90;;;2.44;49.92
62055;BME280;48653;51.742;-1.256;2024-01-27T04:59:20;102677.96;;;2.18;50.40
62055;BME280;48653;51.742;-1.256;2024-01-27T05:01:46;102674.19;;;2.08;50.08
62055;BME280;48653;51.742;-1.256;2024-01-27T05:04:11;102669.54;;;2.39;49.81
62055;BME280;48653;51.742;-1.256;2024-01-27T05:06:37;102655.55;;;2.41;49.54
62055;BME280;48653;51.742;-1.256;2024-01-27T05:09:03;102660.12;;;1.69;50.88
62055;BME280;48653;51.742;-1.256;2024-01-27T05:11:30;102656.87;;;1.96;50.08
62055;BME280;48653;51.742;-1.256;2024-01-27T05:13:54;102661.57;;;1.95;50.15
62055;BME280;48653;51.742;-1.256;2024-01-27T05:16:19;102660.39;;;2.19;49.55
62055;BME280;48653;51.742;-1.256;2024-01-27T05:18:44;102656.67;;;2.11;49.29
62055;BME280;48653;51.742;-1.256;2024-01-27T05:21:10;102663.42;;;2.38;48.90
62055;BME280;48653;51.742;-1.256;2024-01-27T05:23:36;102666.29;;;2.18;49.16
62055;BME280;48653;51.742;-1.256;2024-01-27T05:26:01;102663.44;;;2.46;48.88
62055;BME280;48653;51.742;-1.256;2024-01-27T05:28:26;102660.79;;;2.21;50.08
62055;BME280;48653;51.742;-1.256;2024-01-27T05:30:52;102658.13;;;2.20;50.11
62055;BME280;48653;51.742;-1.256;2024-01-27T05:33:17;102664.73;;;1.76;51.17
62055;BME280;48653;51.742;-1.256;2024-01-27T05:35:43;102658.13;;;2.20;50.22
62055;BME280;48653;51.742;-1.256;2024-01-27T05:38:08;102648.20;;;2.01;50.05
62055;BME280;48653;51.742;-1.256;2024-01-27T05:40:33;102647.42;;;2.73;49.31
62055;BME280;48653;51.742;-1.256;2024-01-27T05:42:58;102639.85;;;1.97;49.59
62055;BME280;48653;51.742;-1.256;2024-01-27T05:45:24;102643.39;;;1.88;50.76
62055;BME280;48653;51.742;-1.256;2024-01-27T05:47:50;102648.70;;;2.12;49.61
62055;BME280;48653;51.742;-1.256;2024-01-27T05:50:15;102659.79;;;2.23;49.55
62055;BME280;48653;51.742;-1.256;2024-01-27T05:52:41;102664.14;;;2.38;49.76
62055;BME280;48653;51.742;-1.256;2024-01-27T05:55:07;102664.72;;;2.33;48.82
62055;BME280;48653;51.742;-1.256;2024-01-27T05:57:32;102668.08;;;2.07;49.23
62055;BME280;48653;51.742;-1.256;2024-01-27T05:59:57;102669.64;;;2.41;49.37
62055;BME280;48653;51.742;-1.256;2024-01-27T06:02:23;102668.33;;;2.33;49.45
62055;BME280;48653;51.742;-1.256;2024-01-27T06:04:49;102674.56;;;2.14;49.53
62055;BME280;48653;51.742;-1.256;2024-01-27T06:07:14;102673.92;;;2.08;49.62
62055;BME280;48653;51.742;-1.256;2024-01-27T06:09:40;102673.88;;;2.70;48.26
62055;BME280;48653;51.742;-1.256;2024-01-27T06:12:05;102677.33;;;2.27;48.78
62055;BME280;48653;51.742;-1.256;2024-01-27T06:16:55;102671.89;;;2.31;49.16
62055;BME280;48653;51.742;-1.256;2024-01-27T06:19:21;102668.16;;;1.94;50.22
62055;BME280;48653;51.742;-1.256;2024-01-27T06:21:46;102669.11;;;2.24;50.43
62055;BME280;48653;51.742;-1.256;2024-01-27T06:24:11;102668.46;;;1.11;52.20
62055;BME280;48653;51.742;-1.256;2024-01-27T06:26:36;102655.08;;;2.26;50.86
62055;BME280;48653;51.742;-1.256;2024-01-27T06:29:02;102647.34;;;2.04;50.28
62055;BME280;48653;51.742;-1.256;2024-01-27T06:31:27;102630.94;;;2.02;50.43
62055;BME280;48653;51.742;-1.256;2024-01-27T06:33:52;102645.52;;;1.91;50.37
62055;BME280;48653;51.742;-1.256;2024-01-27T06:36:18;102646.23;;;2.13;49.62
62055;BME280;48653;51.742;-1.256;2024-01-27T06:38:43;102639.75;;;2.36;48.72
62055;BME280;48653;51.742;-1.256;2024-01-27T06:41:10;102654.01;;;2.34;48.69
62055;BME280;48653;51.742;-1.256;2024-01-27T06:43:35;102670.46;;;2.06;48.60
62055;BME280;48653;51.742;-1.256;2024-01-27T06:45:59;102659.75;;;2.18;49.04
62055;BME280;48653;51.742;-1.256;2024-01-27T06:48:25;102659.26;;;2.35;48.76
62055;BME280;48653;51.742;-1.256;2024-01-27T06:50:51;102652.12;;;2.94;47.98
62055;BME280;48653;51.742;-1.256;2024-01-27T06:53:18;102658.20;;;2.62;49.20
62055;BME280;48653;51.742;-1.256;2024-01-27T06:55:43;102658.18;;;2.51;48.45
62055;BME280;48653;51.742;-1.256;2024-01-27T06:58:08;102662.86;;;2.50;48.82
62055;BME280;48653;51.742;-1.256;2024-01-27T07:00:33;102668.93;;;2.47;47.99
62055;BME280;48653;51.742;-1.256;2024-01-27T07:02:58;102665.80;;;2.62;48.02
62055;BME280;48653;51.742;-1.256;2024-01-27T07:05:24;102659.59;;;2.84;48.25
62055;BME280;48653;51.742;-1.256;2024-01-27T07:07:49;102661.62;;;2.41;48.40
62055;BME280;48653;51.742;-1.256;2024-01-27T07:10:15;102659.03;;;2.43;48.22
62055;BME280;48653;51.742;-1.256;2024-01-27T07:12:41;102644.84;;;2.37;48.15
62055;BME280;48653;51.742;-1.256;2024-01-27T07:15:06;102632.36;;;2.42;48.36
62055;BME280;48653;51.742;-1.256;2024-01-27T07:17:30;102628.89;;;3.18;48.37
62055;BME280;48653;51.742;-1.256;2024-01-27T07:19:56;102631.10;;;2.37;49.74
62055;BME280;48653;51.742;-1.256;2024-01-27T07:22:22;102627.56;;;2.56;49.11
62055;BME280;48653;51.742;-1.256;2024-01-27T07:24:47;102631.37;;;2.42;49.37
62055;BME280;48653;51.742;-1.256;2024-01-27T07:27:13;102639.68;;;2.01;49.28
62055;BME280;48653;51.742;-1.256;2024-01-27T07:29:37;102647.15;;;2.41;48.85
62055;BME280;48653;51.742;-1.256;2024-01-27T07:32:03;102641.64;;;2.08;49.31
62055;BME280;48653;51.742;-1.256;2024-01-27T07:34:27;102647.07;;;2.16;49.41
62055;BME280;48653;51.742;-1.256;2024-01-27T07:36:54;102654.13;;;2.17;49.87
62055;BME280;48653;51.742;-1.256;2024-01-27T07:39:18;102655.17;;;2.23;50.26
62055;BME280;48653;51.742;-1.256;2024-01-27T07:41:44;102658.21;;;1.92;50.82
62055;BME280;48653;51.742;-1.256;2024-01-27T07:44:09;102659.48;;;2.09;50.42
62055;BME280;48653;51.742;-1.256;2024-01-27T07:46:35;102666.15;;;2.40;49.79
62055;BME280;48653;51.742;-1.256;2024-01-27T07:48:59;102665.93;;;2.53;49.51
62055;BME280;48653;51.742;-1.256;2024-01-27T07:51:25;102661.70;;;2.85;48.95
62055;BME280;48653;51.742;-1.256;2024-01-27T07:53:50;102666.10;;;2.28;50.09
62055;BME280;48653;51.742;-1.256;2024-01-27T07:56:16;102660.15;;;1.82;51.01
62055;BME280;48653;51.742;-1.256;2024-01-27T07:58:41;102658.75;;;1.80;52.00
62055;BME280;48653;51.742;-1.256;2024-01-27T08:01:06;102659.97;;;1.50;53.81
62055;BME280;48653;51.742;-1.256;2024-01-27T08:03:31;102655.77;;;1.88;52.59
62055;BME280;48653;51.742;-1.256;2024-01-27T08:05:57;102644.71;;;2.06;52.24
62055;BME280;48653;51.742;-1.256;2024-01-27T08:08:21;102638.12;;;2.18;51.68
62055;BME280;48653;51.742;-1.256;2024-01-27T08:10:47;102641.88;;;2.23;51.64
62055;BME280;48653;51.742;-1.256;2024-01-27T08:13:13;102645.50;;;2.01;52.46
62055;BME280;48653;51.742;-1.256;2024-01-27T08:15:38;102647.31;;;2.16;51.55
62055;BME280;48653;51.742;-1.256;2024-01-27T08:18:04;102641.26;;;2.90;50.58
62055;BME280;48653;51.742;-1.256;2024-01-27T08:20:30;102650.02;;;2.86;51.02
62055;BME280;48653;51.742;-1.256;2024-01-27T08:22:56;102650.58;;;2.86;51.19
62055;BME280;48653;51.742;-1.256;2024-01-27T08:25:21;102657.10;;;2.49;51.56
62055;BME280;48653;51.742;-1.256;2024-01-27T08:27:46;102659.37;;;3.11;50.57
62055;BME280;48653;51.742;-1.256;2024-01-27T08:30:13;102665.01;;;2.93;50.78
62055;BME280;48653;51.742;-1.256;2024-01-27T08:32:37;102669.84;;;2.84;51.24
62055;BME280;48653;51.742;-1.256;2024-01-27T08:35:04;102674.77;;;2.78;51.42
62055;BME280;48653;51.742;-1.256;2024-01-27T08:37:28;102675.48;;;2.93;51.31
62055;BME280;48653;51.742;-1.256;2024-01-27T08:39:54;102678.62;;;2.92;51.30
62055;BME280;48653;51.742;-1.256;2024-01-27T08:42:20;102680.55;;;2.92;51.62
62055;BME280;48653;51.742;-1.256;2024-01-27T08:44:45;102680.63;;;2.39;52.85
62055;BME280;48653;51.742;-1.256;2024-01-27T08:47:10;102686.22;;;2.77;52.13
62055;BME280;48653;51.742;-1.256;2024-01-27T08:49:36;102688.78;;;2.95;51.88
62055;BME280;48653;51.742;-1.256;2024-01-27T08:52:02;102682.11;;;3.35;51.14
62055;BME280;48653;51.742;-1.256;2024-01-27T08:54:26;102681.87;;;3.12;51.63
62055;BME280;48653;51.742;-1.256;2024-01-27T08:56:52;102681.38;;;3.02;51.75
62055;BME280;48653;51.742;-1.256;2024-01-27T08:59:17;102675.71;;;3.19;51.91
62055;BME280;48653;51.742;-1.256;2024-01-27T09:01:42;102671.53;;;3.29;52.08
62055;BME280;48653;51.742;-1.256;2024-01-27T09:04:09;102674.39;;;3.24;51.91
62055;BME280;48653;51.742;-1.256;2024-01-27T09:06:34;102671.90;;;3.42;51.79
62055;BME280;48653;51.742;-1.256;2024-01-27T09:08:59;102667.68;;;3.64;51.17
62055;BME280;48653;51.742;-1.256;2024-01-27T09:11:25;102658.15;;;3.81;50.49
62055;BME280;48653;51.742;-1.256;2024-01-27T09:13:50;102655.37;;;3.76;50.79
62055;BME280;48653;51.742;-1.256;2024-01-27T09:16:16;102657.81;;;3.71;51.48
62055;BME280;48653;51.742;-1.256;2024-01-27T09:18:41;102661.98;;;4.11;50.20
62055;BME280;48653;51.742;-1.256;2024-01-27T09:21:06;102665.67;;;4.46;50.30
62055;BME280;48653;51.742;-1.256;2024-01-27T09:23:32;102665.32;;;3.86;50.46
62055;BME280;48653;51.742;-1.256;2024-01-27T09:25:57;102669.17;;;4.09;51.07
62055;BME280;48653;51.742;-1.256;2024-01-27T09:28:22;102681.91;;;4.06;50.69
62055;BME280;48653;51.742;-1.256;2024-01-27T09:30:48;102676.21;;;4.48;51.25
62055;BME280;48653;51.742;-1.256;2024-01-27T09:33:13;102668.96;;;4.45;51.11
62055;BME280;48653;51.742;-1.256;2024-01-27T09:35:38;102667.40;;;4.16;51.31
62055;BME280;48653;51.742;-1.256;2024-01-27T09:38:04;102669.22;;;5.14;50.70
62055;BME280;48653;51.742;-1.256;2024-01-27T09:40:29;102671.31;;;4.55;50.99
62055;BME280;48653;51.742;-1.256;2024-01-27T09:42:57;102672.04;;;4.94;50.56
62055;BME280;48653;51.742;-1.256;2024-01-27T09:45:20;102673.57;;;5.16;50.12
62055;BME280;48653;51.742;-1.256;2024-01-27T09:47:45;102680.63;;;5.19;50.12
62055;BME280;48653;51.742;-1.256;2024-01-27T09:50:11;102679.63;;;5.48;49.64
62055;BME280;48653;51.742;-1.256;2024-01-27T09:52:36;102685.41;;;6.70;47.92
62055;BME280;48653;51.742;-1.256;2024-01-27T09:55:01;102687.54;;;6.39;47.52
62055;BME280;48653;51.742;-1.256;2024-01-27T09:57:27;102687.78;;;6.95;46.95
62055;BME280;48653;51.742;-1.256;2024-01-27T09:59:52;102691.80;;;6.27;47.86
62055;BME280;48653;51.742;-1.256;2024-01-27T10:02:18;102695.70;;;6.88;47.22
62055;BME280;48653;51.742;-1.256;2024-01-27T10:04:44;102699.91;;;6.52;47.52
62055;BME280;48653;51.742;-1.256;2024-01-27T10:07:08;102703.94;;;6.16;48.20
62055;BME280;48653;51.742;-1.256;2024-01-27T10:09:33;102709.56;;;6.12;47.87
62055;BME280;48653;51.742;-1.256;2024-01-27T10:12:00;102705.82;;;6.47;48.38
62055;BME280;48653;51.742;-1.256;2024-01-27T10:14:23;102711.06;;;6.70;48.43
62055;BME280;48653;51.742;-1.256;2024-01-27T10:16:49;102712.02;;;5.95;48.98
62055;BME280;48653;51.742;-1.256;2024-01-27T10:19:15;102718.17;;;6.23;48.97
62055;BME280;48653;51.742;-1.256;2024-01-27T10:21:39;102726.34;;;5.45;50.99
62055;BME280;48653;51.742;-1.256;2024-01-27T10:24:06;102723.17;;;5.22;51.31
62055;BME280;48653;51.742;-1.256;2024-01-27T10:26:31;102716.25;;;6.54;49.10
62055;BME280;48653;51.742;-1.256;2024-01-27T10:28:56;102713.17;;;6.17;48.79
62055;BME280;48653;51.742;-1.256;2024-01-27T10:31:26;102714.34;;;6.68;48.55
62055;BME280;48653;51.742;-1.256;2024-01-27T10:33:51;102709.24;;;6.73;48.84
62055;BME280;48653;51.742;-1.256;2024-01-27T10:36:12;102701.88;;;6.18;49.54
62055;BME280;48653;51.742;-1.256;2024-01-27T10:38:37;102701.70;;;5.92;50.73
62055;BME280;48653;51.742;-1.256;2024-01-27T10:41:07;102701.66;;;7.09;48.76
62055;BME280;48653;51.742;-1.256;2024-01-27T10:43:29;102692.48;;;6.37;50.58
62055;BME280;48653;51.742;-1.256;2024-01-27T10:45:54;102688.00;;;6.43;50.45
62055;BME280;48653;51.742;-1.256;2024-01-27T10:48:20;102684.99;;;6.73;49.87
62055;BME280;48653;51.742;-1.256;2024-01-27T10:50:46;102685.74;;;6.96;49.81
62055;BME280;48653;51.742;-1.256;2024-01-27T10:53:19;102688.62;;;6.55;49.78
62055;BME280;48653;51.742;-1.256;2024-01-27T10:55:35;102689.84;;;6.55;49.53
62055;BME280;48653;51.742;-1.256;2024-01-27T10:58:02;102685.16;;;7.45;48.44
62055;BME280;48653;51.742;-1.256;2024-01-27T11:00:26;102682.78;;;7.35;48.59
62055;BME280;48653;51.742;-1.256;2024-01-27T11:02:52;102680.60;;;7.63;47.84
62055;BME280;48653;51.742;-1.256;2024-01-27T11:05:17;102677.46;;;7.60;47.47
62055;BME280;48653;51.742;-1.256;2024-01-27T11:07:42;102671.32;;;7.95;47.04
62055;BME280;48653;51.742;-1.256;2024-01-27T11:10:07;102669.24;;;8.31;45.86
62055;BME280;48653;51.742;-1.256;2024-01-27T11:12:32;102667.14;;;7.21;47.15
62055;BME280;48653;51.742;-1.256;2024-01-27T11:14:57;102657.35;;;7.72;46.78
62055;BME280;48653;51.742;-1.256;2024-01-27T11:17:22;102650.39;;;7.62;47.55
62055;BME280;48653;51.742;-1.256;2024-01-27T11:19:49;102646.04;;;7.90;47.47
62055;BME280;48653;51.742;-1.256;2024-01-27T11:22:23;102645.53;;;7.86;47.38
62055;BME280;48653;51.742;-1.256;2024-01-27T11:24:39;102651.40;;;7.35;48.83
62055;BME280;48653;51.742;-1.256;2024-01-27T11:27:05;102650.73;;;8.26;47.56
62055;BME280;48653;51.742;-1.256;2024-01-27T11:29:30;102651.85;;;7.76;47.78
62055;BME280;48653;51.742;-1.256;2024-01-27T11:31:55;102643.64;;;7.81;47.63
62055;BME280;48653;51.742;-1.256;2024-01-27T11:34:20;102637.98;;;8.64;47.02
62055;BME280;48653;51.742;-1.256;2024-01-27T11:36:45;102632.98;;;9.34;45.64
62055;BME280;48653;51.742;-1.256;2024-01-27T11:39:24;102628.58;;;9.80;44.55
62055;BME280;48653;51.742;-1.256;2024-01-27T11:48:52;102630.02;;;8.71;44.66
62055;BME280;48653;51.742;-1.256;2024-01-27T11:51:18;102635.17;;;8.48;45.33
62055;BME280;48653;51.742;-1.256;2024-01-27T11:53:43;102632.28;;;8.00;46.76
62055;BME280;48653;51.742;-1.256;2024-01-27T11:56:08;102629.62;;;7.76;46.99
62055;BME280;48653;51.742;-1.256;2024-01-27T11:58:33;102629.94;;;8.24;46.02
62055;BME280;48653;51.742;-1.256;2024-01-27T12:00:59;102625.80;;;8.51;46.00
62055;BME280;48653;51.742;-1.256;2024-01-27T12:03:24;102624.06;;;8.23;45.72
62055;BME280;48653;51.742;-1.256;2024-01-27T12:05:49;102613.03;;;7.43;48.48
62055;BME280;48653;51.742;-1.256;2024-01-27T12:08:14;102614.33;;;7.84;47.57
62055;BME280;48653;51.742;-1.256;2024-01-27T12:10:39;102613.97;;;8.20;46.34
62055;BME280;48653;51.742;-1.256;2024-01-27T12:13:05;102612.32;;;8.07;47.76
62055;BME280;48653;51.742;-1.256;2024-01-27T12:15:30;102606.47;;;8.40;47.36
62055;BME280;48653;51.742;-1.256;2024-01-27T12:17:55;102601.92;;;8.77;46.90
62055;BME280;48653;51.742;-1.256;2024-01-27T12:20:22;102593.96;;;9.82;45.37
62055;BME280;48653;51.742;-1.256;2024-01-27T12:22:45;102591.48;;;9.90;44.75
62055;BME280;48653;51.742;-1.256;2024-01-27T12:25:12;102587.19;;;10.29;44.69
62055;BME280;48653;51.742;-1.256;2024-01-27T12:27:36;102583.37;;;11.11;42.71
62055;BME280;48653;51.742;-1.256;2024-01-27T12:30:03;102584.32;;;10.52;43.40
62055;BME280;48653;51.742;-1.256;2024-01-27T12:32:27;102580.34;;;10.07;44.62
62055;BME280;48653;51.742;-1.256;2024-01-27T12:34:52;102573.38;;;10.96;43.65
62055;BME280;48653;51.742;-1.256;2024-01-27T12:37:17;102575.28;;;11.10;42.65
62055;BME280;48653;51.742;-1.256;2024-01-27T12:39:43;102561.28;;;10.79;42.15
62055;BME280;48653;51.742;-1.256;2024-01-27T12:42:07;102559.30;;;11.26;42.59
62055;BME280;48653;51.742;-1.256;2024-01-27T12:44:32;102563.68;;;10.78;42.44
62055;BME280;48653;51.742;-1.256;2024-01-27T12:46:57;102561.12;;;10.75;42.51
62055;BME280;48653;51.742;-1.256;2024-01-27T12:49:23;102551.01;;;10.07;43.31
62055;BME280;48653;51.742;-1.256;2024-01-27T12:51:49;102554.40;;;9.88;44.02